createdAt,value
2017-07-29T00:00:59.546Z,20.20
2017-07-29T00:03:26.433Z,20.10
2017-07-29T00:05:53.789Z,20.00
2017-07-29T00:08:21.138Z,19.90
2017-07-29T00:10:48.084Z,20.00
2017-07-29T00:13:15.077Z,19.90
2017-07-29T00:15:41.979Z,19.80
2017-07-29T00:18:09.231Z,19.80
2017-07-29T00:20:36.171Z,19.80
2017-07-29T00:23:03.522Z,19.80
2017-07-29T00:25:30.465Z,19.80
2017-07-29T00:27:57.373Z,19.70
2017-07-29T00:30:24.286Z,19.70
2017-07-29T00:32:51.197Z,19.70
2017-07-29T00:35:18.086Z,19.70
2017-07-29T00:37:45.091Z,19.80
2017-07-29T00:40:12.037Z,19.80
2017-07-29T00:42:38.986Z,19.80
2017-07-29T00:45:05.894Z,19.90
2017-07-29T00:47:33.083Z,19.90
2017-07-29T00:50:00.130Z,19.80
2017-07-29T00:52:27.082Z,19.80
2017-07-29T00:54:54.423Z,19.70
2017-07-29T00:57:21.305Z,19.70
2017-07-29T00:59:48.314Z,19.70
2017-07-29T01:02:15.262Z,19.70
2017-07-29T01:04:42.213Z,19.70
2017-07-29T01:07:09.563Z,19.70
2017-07-29T01:09:36.509Z,19.70
2017-07-29T01:12:03.462Z,19.60
2017-07-29T01:14:30.742Z,19.40
2017-07-29T01:16:58.217Z,19.40
2017-07-29T01:19:25.130Z,19.30
2017-07-29T01:21:52.410Z,19.00
2017-07-29T01:24:19.333Z,19.10
2017-07-29T01:26:46.237Z,18.90
2017-07-29T01:29:13.212Z,19.00
2017-07-29T01:31:40.118Z,19.00
2017-07-29T01:34:07.089Z,19.00
2017-07-29T01:36:34.045Z,19.00
2017-07-29T01:39:00.926Z,19.10
2017-07-29T01:41:27.810Z,19.10
2017-07-29T01:43:54.796Z,19.20
2017-07-29T01:46:22.186Z,19.10
2017-07-29T01:48:49.085Z,19.10
2017-07-29T01:51:16.007Z,19.00
2017-07-29T01:53:42.889Z,19.00
2017-07-29T01:56:10.171Z,19.00
2017-07-29T01:58:37.178Z,19.00
2017-07-29T02:01:04.065Z,19.00
2017-07-29T02:03:30.945Z,19.00
2017-07-29T02:05:57.918Z,19.00
2017-07-29T02:08:24.801Z,18.90
2017-07-29T02:10:51.969Z,18.90
2017-07-29T02:13:18.960Z,19.00
2017-07-29T02:15:45.906Z,18.90
2017-07-29T02:18:12.858Z,18.90
2017-07-29T02:20:39.737Z,18.80
2017-07-29T02:23:06.741Z,18.80
2017-07-29T02:25:33.693Z,18.80
2017-07-29T02:28:00.577Z,18.90
2017-07-29T02:30:27.585Z,18.90
2017-07-29T02:32:54.737Z,18.70
2017-07-29T02:35:21.626Z,18.80
2017-07-29T02:37:48.625Z,18.70
2017-07-29T02:40:15.573Z,18.60
2017-07-29T02:42:42.470Z,18.60
2017-07-29T02:45:09.391Z,18.60
2017-07-29T02:47:36.323Z,18.60
2017-07-29T02:50:03.601Z,18.50
2017-07-29T02:52:30.614Z,18.50
2017-07-29T02:54:57.557Z,18.50
2017-07-29T02:57:24.439Z,18.50
2017-07-29T02:59:51.356Z,18.60
2017-07-29T03:02:18.668Z,18.50
2017-07-29T03:04:45.558Z,18.40
2017-07-29T03:07:12.903Z,18.40
2017-07-29T03:09:39.852Z,18.40
2017-07-29T03:12:06.794Z,18.30
2017-07-29T03:14:33.758Z,18.20
2017-07-29T03:17:01.102Z,18.20
2017-07-29T03:19:28.053Z,18.20
2017-07-29T03:21:55.410Z,18.30
2017-07-29T03:24:22.717Z,18.40
2017-07-29T03:26:49.625Z,18.40
2017-07-29T03:29:16.941Z,18.40
2017-07-29T03:31:43.904Z,18.40
2017-07-29T03:34:10.853Z,18.40
2017-07-29T03:36:38.254Z,18.50
2017-07-29T03:39:05.153Z,18.50
2017-07-29T03:41:32.102Z,18.60
2017-07-29T03:43:59.008Z,18.60
2017-07-29T03:46:25.889Z,18.60
2017-07-29T03:48:52.843Z,18.70
2017-07-29T03:51:19.783Z,18.60
2017-07-29T03:53:47.268Z,18.60
2017-07-29T03:56:14.194Z,18.70
2017-07-29T03:58:41.546Z,18.70
2017-07-29T04:01:08.493Z,18.70
2017-07-29T04:03:35.414Z,18.70
2017-07-29T04:06:02.381Z,18.80
2017-07-29T04:08:29.429Z,18.80
2017-07-29T04:10:56.378Z,18.80
2017-07-29T04:13:23.324Z,18.70
2017-07-29T04:15:50.240Z,18.80
2017-07-29T04:18:17.213Z,18.80
2017-07-29T04:20:44.177Z,18.80
2017-07-29T04:23:11.530Z,18.80
2017-07-29T04:25:38.877Z,18.80
2017-07-29T04:28:05.825Z,18.80
2017-07-29T04:30:32.705Z,18.80
2017-07-29T04:32:59.633Z,18.90
2017-07-29T04:35:26.907Z,19.00
2017-07-29T04:37:53.784Z,19.00
2017-07-29T04:40:20.701Z,19.00
2017-07-29T04:42:47.583Z,18.90
2017-07-29T04:45:14.544Z,18.90
2017-07-29T04:47:41.461Z,18.90
2017-07-29T04:50:08.347Z,18.90
2017-07-29T04:52:35.797Z,18.90
2017-07-29T04:55:02.751Z,18.90
2017-07-29T04:57:29.697Z,19.00
2017-07-29T04:59:56.647Z,19.10
2017-07-29T05:02:23.590Z,19.00
2017-07-29T05:04:50.946Z,18.80
2017-07-29T05:07:18.293Z,18.80
2017-07-29T05:09:45.241Z,18.80
2017-07-29T05:12:12.121Z,18.90
2017-07-29T05:14:39.334Z,19.00
2017-07-29T05:17:06.222Z,19.10
2017-07-29T05:19:33.129Z,19.20
2017-07-29T05:22:00.078Z,19.20
2017-07-29T05:24:27.409Z,19.20
2017-07-29T05:26:54.378Z,19.30
2017-07-29T05:29:21.325Z,19.30
2017-07-29T05:31:48.633Z,19.30
2017-07-29T05:34:15.553Z,19.30
2017-07-29T05:36:42.472Z,19.30
2017-07-29T05:39:09.456Z,19.50
2017-07-29T05:41:36.471Z,19.60
2017-07-29T05:44:03.415Z,19.70
2017-07-29T05:46:30.297Z,19.80
2017-07-29T05:48:57.301Z,19.90
2017-07-29T05:51:24.253Z,19.80
2017-07-29T05:53:51.203Z,19.90
2017-07-29T05:56:19.418Z,20.10
2017-07-29T05:58:46.362Z,20.10
2017-07-29T06:01:13.268Z,20.20
2017-07-29T06:03:40.213Z,20.30
2017-07-29T06:06:07.157Z,20.50
2017-07-29T06:08:34.073Z,20.50
2017-07-29T06:11:01.017Z,20.50
2017-07-29T06:13:27.897Z,20.50
2017-07-29T06:15:54.786Z,20.60
2017-07-29T06:18:21.760Z,20.70
2017-07-29T06:20:49.305Z,20.80
2017-07-29T06:23:16.267Z,20.80
2017-07-29T06:25:45.773Z,20.80
2017-07-29T06:28:13.125Z,20.90
2017-07-29T06:30:40.470Z,21.10
2017-07-29T06:33:07.420Z,21.10
2017-07-29T06:35:34.332Z,21.20
2017-07-29T06:38:01.309Z,21.30
2017-07-29T06:40:28.671Z,21.60
2017-07-29T06:42:56.018Z,21.70
2017-07-29T06:45:22.901Z,21.70
2017-07-29T06:47:49.906Z,21.90
2017-07-29T06:50:16.857Z,22.00
2017-07-29T06:52:43.737Z,22.10
2017-07-29T06:55:10.616Z,22.20
2017-07-29T06:57:37.594Z,22.30
2017-07-29T07:00:04.541Z,22.20
2017-07-29T07:02:31.491Z,22.20
2017-07-29T07:04:58.370Z,22.20
2017-07-29T07:07:25.285Z,22.10
2017-07-29T07:09:52.636Z,22.20
2017-07-29T07:12:19.585Z,22.20
2017-07-29T07:14:46.524Z,22.20
2017-07-29T07:17:13.469Z,22.20
2017-07-29T07:19:40.425Z,22.10
2017-07-29T07:22:07.758Z,21.70
2017-07-29T07:24:34.709Z,21.70
2017-07-29T07:27:01.669Z,21.90
2017-07-29T07:29:28.640Z,22.00
2017-07-29T07:31:55.564Z,22.00
2017-07-29T07:34:22.447Z,22.20
2017-07-29T07:36:49.449Z,22.40
2017-07-29T07:39:16.402Z,22.40
2017-07-29T07:41:43.362Z,22.50
2017-07-29T07:44:10.705Z,22.70
2017-07-29T07:46:37.592Z,22.70
2017-07-29T07:49:04.948Z,22.80
2017-07-29T07:51:31.825Z,22.80
2017-07-29T07:53:58.793Z,22.90
2017-07-29T07:56:25.741Z,23.00
2017-07-29T07:58:52.658Z,23.20
2017-07-29T08:01:19.634Z,23.30
2017-07-29T08:03:46.513Z,23.40
2017-07-29T08:06:13.441Z,23.50
2017-07-29T08:08:40.777Z,23.90
2017-07-29T08:11:07.771Z,23.90
2017-07-29T08:13:34.668Z,24.10
2017-07-29T08:16:01.593Z,24.20
2017-07-29T08:18:28.561Z,24.20
2017-07-29T08:20:55.522Z,24.10
2017-07-29T08:23:22.811Z,24.20
2017-07-29T08:25:49.693Z,24.20
2017-07-29T08:28:16.657Z,24.20
2017-07-29T08:30:43.601Z,24.20
2017-07-29T08:33:10.481Z,24.20
2017-07-29T08:35:37.393Z,24.40
2017-07-29T08:38:04.273Z,24.60
2017-07-29T08:40:31.160Z,24.60
2017-07-29T08:42:58.134Z,24.40
2017-07-29T08:45:25.081Z,24.50
2017-07-29T08:47:51.971Z,24.80
2017-07-29T08:50:18.965Z,24.90
2017-07-29T08:52:45.947Z,25.00
2017-07-29T08:55:12.831Z,25.10
2017-07-29T08:57:39.813Z,25.30
2017-07-29T09:00:07.229Z,24.70
2017-07-29T09:02:34.212Z,24.70
2017-07-29T09:05:01.103Z,24.90
2017-07-29T09:07:28.066Z,25.10
2017-07-29T09:09:55.403Z,25.60
2017-07-29T09:12:22.364Z,25.60
2017-07-29T09:14:49.641Z,25.70
2017-07-29T09:17:16.549Z,25.70
2017-07-29T09:19:43.501Z,25.50
2017-07-29T09:22:10.393Z,25.40
2017-07-29T09:24:37.278Z,25.60
2017-07-29T09:27:04.200Z,25.70
2017-07-29T09:29:31.078Z,26.00
2017-07-29T09:31:58.024Z,26.10
2017-07-29T09:34:24.933Z,26.10
2017-07-29T09:36:51.814Z,26.30
2017-07-29T09:39:18.725Z,26.30
2017-07-29T09:41:45.605Z,26.20
2017-07-29T09:44:12.525Z,26.30
2017-07-29T09:46:39.417Z,26.30
2017-07-29T09:49:06.786Z,26.30
2017-07-29T09:51:33.705Z,26.30
2017-07-29T09:54:00.692Z,25.90
2017-07-29T09:56:27.693Z,25.90
2017-07-29T09:58:54.651Z,26.00
2017-07-29T10:01:22.009Z,26.00
2017-07-29T10:03:48.946Z,26.00
2017-07-29T10:06:15.889Z,26.30
2017-07-29T10:08:43.011Z,26.20
2017-07-29T10:11:09.933Z,26.40
2017-07-29T10:13:36.834Z,26.50
2017-07-29T10:16:03.719Z,26.50
2017-07-29T10:18:30.646Z,26.20
2017-07-29T10:20:57.986Z,26.30
2017-07-29T10:23:24.922Z,26.30
2017-07-29T10:25:51.805Z,26.40
2017-07-29T10:28:18.832Z,26.50
2017-07-29T10:30:46.173Z,26.90
2017-07-29T10:33:13.141Z,26.90
2017-07-29T10:35:40.474Z,27.20
2017-07-29T10:38:07.356Z,27.20
2017-07-29T10:40:34.270Z,27.20
2017-07-29T10:43:01.636Z,27.20
2017-07-29T10:45:28.915Z,27.00
2017-07-29T10:47:55.923Z,27.00
2017-07-29T10:50:22.885Z,27.00
2017-07-29T10:52:50.162Z,27.00
2017-07-29T10:55:17.074Z,27.00
2017-07-29T10:57:43.985Z,27.00
2017-07-29T11:00:10.878Z,27.00
2017-07-29T11:02:38.153Z,27.10
2017-07-29T11:05:05.073Z,27.10
2017-07-29T11:07:32.421Z,27.10
2017-07-29T11:09:59.302Z,27.10
2017-07-29T11:12:26.213Z,27.00
2017-07-29T11:14:53.609Z,27.20
2017-07-29T11:17:20.509Z,27.20
2017-07-29T11:19:47.546Z,27.30
2017-07-29T11:22:14.709Z,27.30
2017-07-29T11:24:41.599Z,27.30
2017-07-29T11:27:08.598Z,27.20
2017-07-29T11:29:35.552Z,27.20
2017-07-29T11:32:02.497Z,27.30
2017-07-29T11:34:29.406Z,27.40
2017-07-29T11:36:56.440Z,27.40
2017-07-29T11:39:23.432Z,27.40
2017-07-29T11:41:50.312Z,27.40
2017-07-29T11:44:17.738Z,27.50
2017-07-29T11:46:44.661Z,27.60
2017-07-29T11:49:11.850Z,27.70
2017-07-29T11:51:38.930Z,27.70
2017-07-29T11:54:07.388Z,27.70
2017-07-29T11:56:34.826Z,27.60
2017-07-29T11:59:01.819Z,27.60
2017-07-29T12:01:29.705Z,27.70
2017-07-29T12:03:56.587Z,27.50
2017-07-29T12:06:23.502Z,27.40
2017-07-29T12:08:50.385Z,27.30
2017-07-29T12:11:17.714Z,27.20
2017-07-29T12:13:44.677Z,27.20
2017-07-29T12:16:11.829Z,26.80
2017-07-29T12:18:38.737Z,26.80
2017-07-29T12:21:05.722Z,27.20
2017-07-29T12:23:32.641Z,27.50
2017-07-29T12:25:59.634Z,27.70
2017-07-29T12:28:26.973Z,27.60
2017-07-29T12:30:54.253Z,27.80
2017-07-29T12:33:21.169Z,27.80
2017-07-29T12:35:48.113Z,28.00
2017-07-29T12:38:14.992Z,28.30
2017-07-29T12:40:42.015Z,28.30
2017-07-29T12:43:09.294Z,28.20
2017-07-29T12:45:36.206Z,28.10
2017-07-29T12:48:03.152Z,28.30
2017-07-29T12:50:30.102Z,28.50
2017-07-29T12:52:57.236Z,28.60
2017-07-29T12:55:24.197Z,28.60
2017-07-29T12:57:51.145Z,28.70
2017-07-29T13:00:18.092Z,28.70
2017-07-29T13:02:45.042Z,28.90
2017-07-29T13:05:12.031Z,29.20
2017-07-29T13:07:39.038Z,29.00
2017-07-29T13:10:05.978Z,29.10
2017-07-29T13:12:32.876Z,29.10
2017-07-29T13:14:59.873Z,29.10
2017-07-29T13:17:26.765Z,29.10
2017-07-29T13:19:53.670Z,29.20
2017-07-29T13:22:21.022Z,29.50
2017-07-29T13:24:48.010Z,29.50
2017-07-29T13:27:15.009Z,29.50
2017-07-29T13:29:41.898Z,29.50
2017-07-29T13:32:08.805Z,29.60
2017-07-29T13:34:35.721Z,29.50
2017-07-29T13:37:02.693Z,29.50
2017-07-29T13:39:29.617Z,29.50
2017-07-29T13:41:56.590Z,29.40
2017-07-29T13:44:23.473Z,29.40
2017-07-29T13:46:50.377Z,29.30
2017-07-29T13:49:17.301Z,29.30
2017-07-29T13:51:44.278Z,29.30
2017-07-29T13:54:11.552Z,29.60
2017-07-29T13:56:38.573Z,29.60
2017-07-29T13:59:05.568Z,29.60
2017-07-29T14:01:32.514Z,29.80
2017-07-29T14:03:59.425Z,29.90
2017-07-29T14:06:26.770Z,29.80
2017-07-29T14:08:53.649Z,29.70
2017-07-29T14:11:20.665Z,29.60
2017-07-29T14:13:47.609Z,29.40
2017-07-29T14:16:14.505Z,28.90
2017-07-29T14:18:41.447Z,28.90
2017-07-29T14:21:08.365Z,29.10
2017-07-29T14:23:35.673Z,27.80
2017-07-29T14:26:02.556Z,27.80
2017-07-29T14:28:29.877Z,27.80
2017-07-29T14:30:56.849Z,27.80
2017-07-29T14:33:23.738Z,28.10
2017-07-29T14:35:51.561Z,28.30
2017-07-29T14:38:18.440Z,28.60
2017-07-29T14:40:45.844Z,29.10
2017-07-29T14:43:12.805Z,29.10
2017-07-29T14:45:39.760Z,28.80
2017-07-29T14:48:18.718Z,28.90
2017-07-29T14:50:45.833Z,29.20
2017-07-29T14:53:12.718Z,29.30
2017-07-29T14:55:39.656Z,29.40
2017-07-29T14:58:06.538Z,29.50
2017-07-29T15:00:33.527Z,29.50
2017-07-29T15:03:00.881Z,29.60
2017-07-29T15:05:28.230Z,29.60
2017-07-29T15:07:55.153Z,29.60
2017-07-29T15:10:22.122Z,29.60
2017-07-29T15:12:50.813Z,29.60
2017-07-29T15:15:18.269Z,29.80
2017-07-29T15:17:45.213Z,29.80
2017-07-29T15:20:12.122Z,30.00
2017-07-29T15:22:39.104Z,30.30
2017-07-29T15:25:06.153Z,30.70
2017-07-29T15:27:33.146Z,31.00
2017-07-29T15:30:00.025Z,31.40
2017-07-29T15:32:26.993Z,31.40
2017-07-29T15:34:53.987Z,31.50
2017-07-29T15:37:20.890Z,31.60
2017-07-29T15:39:47.833Z,31.30
2017-07-29T15:42:14.716Z,31.40
2017-07-29T15:44:41.597Z,31.40
2017-07-29T15:47:08.570Z,31.50
2017-07-29T15:49:35.518Z,31.40
2017-07-29T15:52:02.466Z,31.10
2017-07-29T15:54:29.351Z,31.00
2017-07-29T15:56:56.273Z,31.00
2017-07-29T15:59:23.605Z,31.10
2017-07-29T16:01:50.586Z,31.10
2017-07-29T16:04:17.497Z,31.20
2017-07-29T16:06:44.409Z,31.30
2017-07-29T16:09:11.399Z,31.40
2017-07-29T16:11:38.286Z,31.40
2017-07-29T16:14:05.213Z,31.40
2017-07-29T16:16:32.145Z,31.40
2017-07-29T16:18:59.494Z,31.30
2017-07-29T16:21:26.553Z,31.30
2017-07-29T16:23:53.897Z,31.80
2017-07-29T16:26:20.845Z,31.70
2017-07-29T16:28:48.129Z,32.40
2017-07-29T16:31:15.073Z,32.40
2017-07-29T16:33:41.993Z,32.80
2017-07-29T16:36:09.286Z,33.70
2017-07-29T16:38:36.166Z,33.70
2017-07-29T16:41:03.201Z,34.30
2017-07-29T16:43:30.184Z,35.30
2017-07-29T16:45:57.172Z,35.90
2017-07-29T16:48:24.077Z,36.30
2017-07-29T16:50:50.964Z,36.80
2017-07-29T16:53:17.966Z,37.30
2017-07-29T16:55:44.920Z,37.70
2017-07-29T16:58:12.273Z,37.30
2017-07-29T17:00:39.634Z,37.40
2017-07-29T17:03:06.981Z,38.00
2017-07-29T17:05:33.865Z,38.00
2017-07-29T17:08:00.868Z,38.70
2017-07-29T17:10:27.817Z,39.30
2017-07-29T17:12:54.696Z,39.70
2017-07-29T17:15:21.593Z,39.70
2017-07-29T17:17:48.553Z,39.60
2017-07-29T17:20:15.501Z,39.60
2017-07-29T17:22:42.449Z,39.70
2017-07-29T17:25:09.806Z,39.50
2017-07-29T17:27:36.689Z,39.70
2017-07-29T17:30:03.665Z,40.10
2017-07-29T17:32:31.037Z,40.40
2017-07-29T17:34:58.313Z,40.60
2017-07-29T17:37:25.528Z,40.60
2017-07-29T17:39:52.404Z,40.70
2017-07-29T17:42:19.280Z,40.80
2017-07-29T17:44:46.253Z,40.80
2017-07-29T17:47:13.137Z,40.50
2017-07-29T17:49:40.198Z,40.00
2017-07-29T17:52:07.103Z,39.80
2017-07-29T17:54:34.043Z,39.60
2017-07-29T17:57:00.950Z,39.30
2017-07-29T17:59:27.983Z,39.10
2017-07-29T18:01:55.032Z,39.00
2017-07-29T18:04:22.026Z,39.00
2017-07-29T18:06:48.932Z,39.00
2017-07-29T18:09:15.825Z,38.60
2017-07-29T18:11:43.186Z,38.00
2017-07-29T18:14:10.537Z,36.70
2017-07-29T18:16:37.630Z,36.70
2017-07-29T18:19:04.634Z,35.80
2017-07-29T18:21:31.585Z,35.20
2017-07-29T18:23:58.865Z,34.30
2017-07-29T18:26:25.881Z,34.30
2017-07-29T18:28:52.830Z,34.00
2017-07-29T18:31:19.773Z,33.80
2017-07-29T18:33:46.727Z,33.30
2017-07-29T18:36:14.094Z,32.60
2017-07-29T18:38:41.432Z,32.20
2017-07-29T18:41:08.380Z,32.20
2017-07-29T18:43:35.266Z,31.80
2017-07-29T18:46:02.149Z,31.30
2017-07-29T18:48:29.122Z,31.00
2017-07-29T18:50:56.063Z,30.90
2017-07-29T18:53:22.945Z,30.50
2017-07-29T18:55:49.863Z,30.20
2017-07-29T18:58:17.139Z,29.80
2017-07-29T19:00:44.058Z,29.80
2017-07-29T19:03:10.985Z,29.60
2017-07-29T19:05:37.945Z,29.50
2017-07-29T19:08:04.894Z,29.30
2017-07-29T19:10:31.807Z,29.10
2017-07-29T19:12:58.801Z,28.90
2017-07-29T19:15:26.142Z,28.80
2017-07-29T19:17:53.094Z,28.80
2017-07-29T19:20:19.977Z,28.70
2017-07-29T19:22:46.978Z,28.70
2017-07-29T19:25:13.959Z,28.60
2017-07-29T19:27:40.973Z,28.60
2017-07-29T19:30:07.933Z,28.50
2017-07-29T19:32:35.223Z,28.40
2017-07-29T19:35:02.125Z,28.40
2017-07-29T19:37:29.087Z,28.30
2017-07-29T19:39:56.430Z,28.20
2017-07-29T19:42:23.782Z,28.10
2017-07-29T19:44:50.725Z,28.10
2017-07-29T19:47:17.673Z,28.00
2017-07-29T19:49:44.625Z,27.90
2017-07-29T19:52:11.982Z,27.70
2017-07-29T19:54:38.971Z,27.70
2017-07-29T19:57:05.882Z,27.60
2017-07-29T19:59:33.236Z,27.60
2017-07-29T20:02:00.513Z,27.50
2017-07-29T20:04:27.422Z,27.50
2017-07-29T20:06:54.317Z,27.40
2017-07-29T20:09:21.312Z,27.30
2017-07-29T20:11:48.270Z,27.40
2017-07-29T20:14:15.581Z,27.40
2017-07-29T20:16:42.468Z,27.40
2017-07-29T20:19:09.806Z,27.20
2017-07-29T20:21:36.753Z,27.20
2017-07-29T20:24:03.704Z,27.20
2017-07-29T20:26:30.673Z,27.10
2017-07-29T20:28:57.597Z,27.10
2017-07-29T20:31:24.876Z,27.00
2017-07-29T20:33:51.905Z,27.00
2017-07-29T20:36:19.182Z,26.80
2017-07-29T20:38:46.709Z,26.80
2017-07-29T20:41:13.658Z,26.70
2017-07-29T20:43:40.613Z,26.50
2017-07-29T20:46:07.958Z,26.30
2017-07-29T20:48:34.901Z,26.30
2017-07-29T20:51:01.854Z,26.40
2017-07-29T20:53:28.794Z,26.30
2017-07-29T20:55:55.672Z,26.30
2017-07-29T20:58:22.553Z,26.40
2017-07-29T21:00:49.468Z,26.40
2017-07-29T21:03:16.352Z,26.40
2017-07-29T21:05:43.233Z,26.40
2017-07-29T21:08:10.586Z,26.30
2017-07-29T21:10:37.879Z,26.20
2017-07-29T21:13:04.777Z,26.20
2017-07-29T21:15:31.682Z,26.10
2017-07-29T21:17:58.585Z,26.00
2017-07-29T21:20:25.901Z,25.90
2017-07-29T21:22:52.889Z,25.90
2017-07-29T21:25:19.813Z,25.90
2017-07-29T21:27:46.761Z,25.90
2017-07-29T21:30:13.668Z,25.90
2017-07-29T21:32:40.655Z,25.80
2017-07-29T21:35:07.606Z,25.80
2017-07-29T21:37:34.561Z,25.80
2017-07-29T21:40:01.906Z,25.70
2017-07-29T21:42:28.859Z,25.70
2017-07-29T21:44:56.164Z,25.70
2017-07-29T21:47:23.149Z,25.70
2017-07-29T21:49:50.067Z,25.60
2017-07-29T21:52:16.954Z,25.50
2017-07-29T21:54:44.300Z,25.30
2017-07-29T21:57:11.260Z,25.30
2017-07-29T21:59:38.601Z,25.30
2017-07-29T22:02:05.563Z,25.30
2017-07-29T22:04:32.873Z,25.10
2017-07-29T22:06:59.757Z,25.10
2017-07-29T22:09:27.105Z,25.10
2017-07-29T22:11:54.013Z,25.10
2017-07-29T22:14:20.997Z,25.10
2017-07-29T22:16:47.942Z,25.30
2017-07-29T22:19:14.898Z,25.10
2017-07-29T22:21:42.249Z,24.90
2017-07-29T22:24:09.135Z,24.90
2017-07-29T22:26:36.033Z,24.80
2017-07-29T22:29:03.394Z,24.70
2017-07-29T22:31:30.333Z,24.70
2017-07-29T22:33:57.288Z,24.70
2017-07-29T22:36:24.205Z,24.70
2017-07-29T22:38:51.086Z,24.60
2017-07-29T22:41:18.436Z,24.70
2017-07-29T22:43:45.789Z,24.80
2017-07-29T22:46:12.745Z,24.80
2017-07-29T22:48:40.090Z,24.70
2017-07-29T22:51:07.005Z,24.70
2017-07-29T22:53:33.980Z,24.60
2017-07-29T22:56:00.925Z,24.70
2017-07-29T22:58:27.873Z,24.60
2017-07-29T23:00:54.822Z,24.50
2017-07-29T23:03:21.718Z,24.50
2017-07-29T23:05:48.718Z,24.60
2017-07-29T23:08:16.069Z,24.40
2017-07-29T23:10:42.959Z,24.50
2017-07-29T23:13:09.961Z,24.40
2017-07-29T23:15:36.910Z,24.30
2017-07-29T23:18:03.793Z,24.20
2017-07-29T23:20:30.729Z,24.30
2017-07-29T23:22:57.720Z,24.40
2017-07-29T23:25:25.309Z,24.30
2017-07-29T23:27:52.308Z,24.30
2017-07-29T23:30:19.196Z,24.30
2017-07-29T23:32:46.105Z,24.20
2017-07-29T23:35:13.053Z,24.20
2017-07-29T23:37:39.997Z,24.10
2017-07-29T23:40:06.877Z,24.00
2017-07-29T23:42:33.821Z,24.00
2017-07-29T23:45:00.733Z,24.00
2017-07-29T23:47:27.689Z,24.00
2017-07-29T23:49:55.041Z,23.90
2017-07-29T23:52:22.397Z,23.90
2017-07-29T23:54:49.713Z,23.80
2017-07-29T23:57:16.611Z,23.80
2017-07-29T23:59:43.493Z,23.70
